Time;durP1;ratioP1;P1;durP2;ratioP2;P2;SDS_P1;SDS_P2;PMS_P1;PMS_P2;Temp;Humidity;BMP_temperature;BMP_pressure;BME280_temperature;BME280_humidity;BME280_pressure;Samples;Min_cycle;Max_cycle;Signal;HPM_P1;HPM_P2
2022/11/04 00:01:45;;;;;;;83.00;44.78;;;;;;;;;;10144686;28;20059;-68
2022/11/04 00:06:38;;;;;;;78.38;42.60;;;;;;;;;;10148896;28;20052;-69
2022/11/04 00:37:42;;;;;;;82.93;42.60;;;;;;;;;;10147736;28;20052;-69
2022/11/04 00:42:36;;;;;;;86.43;41.47;;;;;;;;;;10140122;28;20514;-69
2022/11/04 00:47:31;;;;;;;85.55;43.50;;;;;;;;;;10147208;28;20083;-69
2022/11/04 00:52:28;;;;;;;88.20;44.77;;;;;;;;;;10149832;28;20048;-69
2022/11/04 00:57:21;;;;;;;90.00;44.10;;;;;;;;;;10146943;28;20080;-69
2022/11/04 01:02:15;;;;;;;93.70;44.42;;;;;;;;;;10147950;28;20403;-69
2022/11/04 01:07:10;;;;;;;96.43;43.63;;;;;;;;;;10146960;28;20079;-68
2022/11/04 01:12:03;;;;;;;96.38;45.30;;;;;;;;;;10146442;28;20549;-68
2022/11/04 01:16:57;;;;;;;94.05;42.65;;;;;;;;;;10147673;28;20052;-68
2022/11/04 01:21:51;;;;;;;90.43;45.10;;;;;;;;;;10146854;28;20053;-68
2022/11/04 01:26:44;;;;;;;90.47;49.20;;;;;;;;;;10146400;28;20083;-70
2022/11/04 01:31:37;;;;;;;90.47;47.13;;;;;;;;;;10146528;28;20064;-68
2022/11/04 01:36:31;;;;;;;104.72;48.05;;;;;;;;;;10146686;28;20537;-68
2022/11/04 01:41:27;;;;;;;96.80;46.63;;;;;;;;;;10146799;28;20056;-68
2022/11/04 01:46:20;;;;;;;101.15;48.10;;;;;;;;;;10153875;28;20400;-68
2022/11/04 01:51:15;;;;;;;98.85;46.95;;;;;;;;;;10156133;28;20110;-69
2022/11/04 01:56:13;;;;;;;108.80;50.88;;;;;;;;;;10153692;28;20045;-69
2022/11/04 02:01:07;;;;;;;;;;;;;;;;;;10135733;28;20044;-68
2022/11/04 02:06:01;;;;;;;112.03;51.53;;;;;;;;;;10139410;28;20001;-69
2022/11/04 02:16:48;;;;;;;104.30;47.38;;;;;;;;;;10152983;28;20048;-69
2022/11/04 02:21:50;;;;;;;215.13;51.70;;;;;;;;;;10134446;28;20102;-69
2022/11/04 02:26:47;;;;;;;266.48;53.50;;;;;;;;;;10152637;28;20044;-69
2022/11/04 02:31:40;;;;;;;196.35;50.35;;;;;;;;;;10152749;28;20053;-69
2022/11/04 02:36:42;;;;;;;202.27;54.63;;;;;;;;;;10152539;28;20115;-68
2022/11/04 02:42:02;;;;;;;299.08;60.20;;;;;;;;;;10152228;28;20044;-68
2022/11/04 02:47:20;;;;;;;387.65;57.33;;;;;;;;;;10152454;28;20535;-69
2022/11/04 02:52:19;;;;;;;261.35;54.35;;;;;;;;;;10140118;28;20041;-69
2022/11/04 02:57:23;;;;;;;354.83;55.53;;;;;;;;;;10151460;28;20417;-71
2022/11/04 03:02:18;;;;;;;478.95;59.83;;;;;;;;;;10151108;28;20655;-69
2022/11/04 03:07:14;;;;;;;299.67;53.90;;;;;;;;;;10151935;28;20102;-69
2022/11/04 03:12:13;;;;;;;423.60;60.15;;;;;;;;;;10150466;28;20053;-69
2022/11/04 03:17:14;;;;;;;382.20;57.17;;;;;;;;;;10133433;28;20045;-68
2022/11/04 03:22:11;;;;;;;282.55;51.55;;;;;;;;;;10101886;28;20077;-68
2022/11/04 03:27:32;;;;;;;262.67;52.83;;;;;;;;;;10095380;28;20052;-69
2022/11/04 03:32:34;;;;;;;327.98;57.92;;;;;;;;;;10069621;28;20480;-69
2022/11/04 03:37:28;;;;;;;167.88;51.08;;;;;;;;;;10068677;28;20049;-69
2022/11/04 03:42:22;;;;;;;143.88;50.55;;;;;;;;;;10071097;28;20409;-69
2022/11/04 03:47:19;;;;;;;126.82;44.45;;;;;;;;;;10062888;28;20087;-69
2022/11/04 03:52:13;;;;;;;124.03;43.30;;;;;;;;;;10070333;28;20050;-69
2022/11/04 03:57:26;;;;;;;116.03;40.38;;;;;;;;;;10071372;28;20467;-68
2022/11/04 04:02:45;;;;;;;120.57;41.97;;;;;;;;;;10072570;28;20065;-69
2022/11/04 04:07:44;;;;;;;93.55;36.55;;;;;;;;;;10063155;28;20055;-69
2022/11/04 04:12:38;;;;;;;95.80;33.72;;;;;;;;;;10057724;28;20045;-68
2022/11/04 04:18:00;;;;;;;105.65;34.65;;;;;;;;;;10069795;28;20045;-68
2022/11/04 04:22:57;;;;;;;61.53;29.70;;;;;;;;;;10135218;28;20060;-68
2022/11/04 04:27:53;;;;;;;63.30;31.88;;;;;;;;;;10125301;28;20116;-69
2022/11/04 04:32:59;;;;;;;70.13;31.85;;;;;;;;;;10138326;28;20474;-68
2022/11/04 04:37:55;;;;;;;71.05;37.75;;;;;;;;;;10124082;28;20547;-68
2022/11/04 04:48:04;;;;;;;65.80;33.28;;;;;;;;;;10139688;28;20547;-68
2022/11/04 04:52:59;;;;;;;63.67;32.13;;;;;;;;;;10144450;28;20040;-69
2022/11/04 04:57:54;;;;;;;56.15;30.40;;;;;;;;;;10166520;28;20052;-67
2022/11/04 05:02:47;;;;;;;54.70;30.70;;;;;;;;;;10146463;28;20051;-68
2022/11/04 05:07:41;;;;;;;54.30;29.05;;;;;;;;;;10146733;28;20469;-69
2022/11/04 05:17:47;;;;;;;50.10;27.88;;;;;;;;;;10146447;28;20048;-69
2022/11/04 05:22:41;;;;;;;45.85;26.40;;;;;;;;;;10155222;28;20061;-69
2022/11/04 05:27:35;;;;;;;42.92;24.58;;;;;;;;;;10146745;28;20052;-70
2022/11/04 05:32:31;;;;;;;33.03;19.58;;;;;;;;;;10146905;28;20071;-68
2022/11/04 05:37:24;;;;;;;24.52;15.45;;;;;;;;;;10142724;28;20044;-69
2022/11/04 05:42:18;;;;;;;19.77;12.77;;;;;;;;;;10151973;28;20495;-70
2022/11/04 05:47:12;;;;;;;21.00;13.20;;;;;;;;;;10161744;28;20052;-68
2022/11/04 05:52:06;;;;;;;21.15;12.98;;;;;;;;;;10148349;28;20048;-70
2022/11/04 05:57:00;;;;;;;23.20;13.65;;;;;;;;;;10139833;28;20132;-71
2022/11/04 06:01:55;;;;;;;19.35;12.65;;;;;;;;;;10139558;28;20114;-69
2022/11/04 06:06:49;;;;;;;23.00;12.77;;;;;;;;;;10138715;28;20060;-68
2022/11/04 06:11:42;;;;;;;17.40;12.23;;;;;;;;;;10134537;28;20076;-67
2022/11/04 06:16:36;;;;;;;20.25;12.43;;;;;;;;;;10143703;28;20179;-67
2022/11/04 06:21:33;;;;;;;17.48;11.65;;;;;;;;;;10118369;28;20401;-67
2022/11/04 06:26:29;;;;;;;4.82;2.65;;;;;;;;;;10139252;28;20491;-68
2022/11/04 06:31:23;;;;;;;7.63;1.77;;;;;;;;;;10145708;28;20052;-68
2022/11/04 06:36:17;;;;;;;3.45;0.80;;;;;;;;;;10135770;28;20099;-67
2022/11/04 06:41:12;;;;;;;4.80;0.90;;;;;;;;;;10138396;28;20060;-68
2022/11/04 06:46:23;;;;;;;2.10;0.80;;;;;;;;;;10145195;28;20712;-70
2022/11/04 06:51:17;;;;;;;0.60;0.60;;;;;;;;;;10143550;28;20380;-66
2022/11/04 06:56:11;;;;;;;0.73;0.70;;;;;;;;;;10148930;28;20052;-67
2022/11/04 07:01:04;;;;;;;5.18;2.35;;;;;;;;;;10154690;28;20052;-68
2022/11/04 07:06:10;;;;;;;0.63;0.60;;;;;;;;;;10165846;28;20044;-68
2022/11/04 07:11:05;;;;;;;0.70;0.70;;;;;;;;;;10149885;28;20049;-68
2022/11/04 07:15:59;;;;;;;0.70;0.70;;;;;;;;;;10149796;28;20036;-67
2022/11/04 07:20:52;;;;;;;1.05;0.63;;;;;;;;;;10157596;28;20088;-68
2022/11/04 07:25:46;;;;;;;2.58;0.73;;;;;;;;;;10133855;28;20443;-65
2022/11/04 07:30:40;;;;;;;0.80;0.80;;;;;;;;;;10153574;28;20102;-68
2022/11/04 07:35:33;;;;;;;1.30;1.13;;;;;;;;;;10156690;28;20132;-67
2022/11/04 07:40:27;;;;;;;2.13;0.80;;;;;;;;;;10157105;28;20052;-75
2022/11/04 07:45:21;;;;;;;1.15;0.70;;;;;;;;;;10153230;28;20056;-68
2022/11/04 07:50:15;;;;;;;1.33;0.70;;;;;;;;;;10145763;28;20056;-67
2022/11/04 07:55:09;;;;;;;4.55;0.80;;;;;;;;;;10137393;28;20040;-67
2022/11/04 08:00:05;;;;;;;0.60;0.60;;;;;;;;;;10148000;28;20081;-68
2022/11/04 08:05:05;;;;;;;0.68;0.68;;;;;;;;;;10148973;28;20438;-68
2022/11/04 08:09:58;;;;;;;0.65;0.65;;;;;;;;;;10129850;28;20053;-68
2022/11/04 08:14:52;;;;;;;0.57;0.57;;;;;;;;;;10147492;28;20066;-68
2022/11/04 08:19:47;;;;;;;1.05;0.65;;;;;;;;;;10148336;28;20061;-68
2022/11/04 08:24:40;;;;;;;0.50;0.50;;;;;;;;;;10144543;28;20094;-68
2022/11/04 08:29:34;;;;;;;0.65;0.50;;;;;;;;;;10160804;28;20499;-63
2022/11/04 08:34:27;;;;;;;0.50;0.50;;;;;;;;;;10162630;28;20083;-65
2022/11/04 08:39:20;;;;;;;0.60;0.60;;;;;;;;;;10142595;28;20079;-66
2022/11/04 08:44:13;;;;;;;2.33;0.70;;;;;;;;;;10146409;28;20090;-63
2022/11/04 08:49:08;;;;;;;2.78;2.05;;;;;;;;;;10147991;28;20053;-63
2022/11/04 08:54:05;;;;;;;3.40;2.70;;;;;;;;;;10149828;28;20073;-65
2022/11/04 08:59:01;;;;;;;2.17;1.98;;;;;;;;;;10158705;28;20118;-66
2022/11/04 09:03:54;;;;;;;2.05;0.90;;;;;;;;;;10166360;28;20483;-63
2022/11/04 09:08:48;;;;;;;1.23;0.77;;;;;;;;;;10148775;28;20410;-63
2022/11/04 09:13:41;;;;;;;2.08;0.40;;;;;;;;;;10131716;28;20407;-63
2022/11/04 09:18:36;;;;;;;0.40;0.40;;;;;;;;;;10145797;28;20049;-65
2022/11/04 09:23:29;;;;;;;0.50;0.50;;;;;;;;;;10145238;28;20052;-63
2022/11/04 09:28:24;;;;;;;1.88;0.50;;;;;;;;;;10148103;28;20507;-63
2022/11/04 09:33:18;;;;;;;0.73;0.40;;;;;;;;;;10149836;28;20048;-63
2022/11/04 09:38:12;;;;;;;2.28;0.40;;;;;;;;;;10166596;28;20131;-63
2022/11/04 09:43:36;;;;;;;1.27;0.40;;;;;;;;;;10161695;28;20052;-63
2022/11/04 09:48:47;;;;;;;0.32;0.32;;;;;;;;;;10166333;28;20457;-63
2022/11/04 09:53:51;;;;;;;0.50;0.43;;;;;;;;;;10129204;28;20491;-64
2022/11/04 09:58:45;;;;;;;0.40;0.40;;;;;;;;;;10144877;28;20495;-64
2022/11/04 10:04:12;;;;;;;1.80;0.50;;;;;;;;;;10147893;28;20098;-63
2022/11/04 10:09:45;;;;;;;4.85;0.55;;;;;;;;;;10140862;28;20393;-66
2022/11/04 10:15:29;;;;;;;0.63;0.63;;;;;;;;;;10134900;28;20063;-63
2022/11/04 10:21:00;;;;;;;0.60;0.40;;;;;;;;;;10022275;28;20059;-63
2022/11/04 10:26:06;;;;;;;0.68;0.40;;;;;;;;;;10148994;28;20072;-63
2022/11/04 10:31:00;;;;;;;0.30;0.30;;;;;;;;;;10156566;28;20055;-64
2022/11/04 10:36:15;;;;;;;0.30;0.30;;;;;;;;;;10142457;28;20543;-64
2022/11/04 10:41:25;;;;;;;5.80;0.50;;;;;;;;;;10150734;28;20593;-64
2022/11/04 10:46:21;;;;;;;0.30;0.30;;;;;;;;;;10160775;28;20495;-64
2022/11/04 10:51:20;;;;;;;0.40;0.40;;;;;;;;;;10151228;28;20076;-64
2022/11/04 10:56:42;;;;;;;0.30;0.30;;;;;;;;;;10144867;28;20056;-63
2022/11/04 11:01:36;;;;;;;0.45;0.40;;;;;;;;;;10143292;28;20052;-66
2022/11/04 11:06:34;;;;;;;0.30;0.30;;;;;;;;;;10138474;28;20036;-68
2022/11/04 11:11:46;;;;;;;0.47;0.40;;;;;;;;;;10137210;28;20131;-66
2022/11/04 11:16:40;;;;;;;0.45;0.45;;;;;;;;;;10154823;28;20575;-66
2022/11/04 11:21:47;;;;;;;0.32;0.32;;;;;;;;;;10147833;28;20060;-66
2022/11/04 11:26:49;;;;;;;1.95;0.47;;;;;;;;;;10140300;28;20056;-66
2022/11/04 11:31:42;;;;;;;1.35;0.40;;;;;;;;;;10143266;28;20056;-66
2022/11/04 11:36:37;;;;;;;0.55;0.40;;;;;;;;;;10143244;28;20089;-66
2022/11/04 11:41:34;;;;;;;0.52;0.50;;;;;;;;;;10141027;28;20098;-66
2022/11/04 11:46:36;;;;;;;0.40;0.40;;;;;;;;;;10141252;28;20120;-67
2022/11/04 11:51:35;;;;;;;0.65;0.50;;;;;;;;;;10142109;28;20533;-66
2022/11/04 11:56:37;;;;;;;1.08;0.52;;;;;;;;;;10145141;28;20059;-66
2022/11/04 12:02:24;;;;;;;0.50;0.50;;;;;;;;;;10156831;28;20490;-66
2022/11/04 12:07:35;;;;;;;0.45;0.45;;;;;;;;;;10105447;28;20052;-65
2022/11/04 12:13:20;;;;;;;0.40;0.40;;;;;;;;;;10141685;28;20499;-66
2022/11/04 12:18:39;;;;;;;0.93;0.50;;;;;;;;;;10167987;28;20052;-68
2022/11/04 12:23:35;;;;;;;0.47;0.47;;;;;;;;;;10150701;28;20048;-66
2022/11/04 12:28:51;;;;;;;0.63;0.60;;;;;;;;;;10147393;28;20037;-66
2022/11/04 12:33:50;;;;;;;0.40;0.40;;;;;;;;;;10140805;28;20128;-66
2022/11/04 12:38:43;;;;;;;;;;;;;;;;;;10152832;28;20135;-66
2022/11/04 12:44:03;;;;;;;1.83;0.50;;;;;;;;;;10153454;28;19920;-64
2022/11/04 12:49:22;;;;;;;0.60;0.60;;;;;;;;;;10149169;28;20068;-65
2022/11/04 12:54:22;;;;;;;;;;;;;;;;;;10154531;28;20146;-65
2022/11/04 12:59:33;;;;;;;1.27;0.60;;;;;;;;;;10148205;28;20405;-65
2022/11/04 13:04:32;;;;;;;0.43;0.43;;;;;;;;;;10146051;28;20048;-68
2022/11/04 13:10:04;;;;;;;0.50;0.50;;;;;;;;;;10144844;28;20052;-67
2022/11/04 13:15:03;;;;;;;2.05;0.50;;;;;;;;;;10138119;28;20083;-66
2022/11/04 13:20:04;;;;;;;2.53;2.03;;;;;;;;;;10141452;28;20123;-67
2022/11/04 13:25:03;;;;;;;1.63;0.50;;;;;;;;;;10125765;28;20118;-68
2022/11/04 13:30:34;;;;;;;0.50;0.50;;;;;;;;;;10127315;28;20136;-67
2022/11/04 13:36:00;;;;;;;0.47;0.47;;;;;;;;;;10147107;28;20511;-67
2022/11/04 13:41:20;;;;;;;0.85;0.63;;;;;;;;;;10097927;28;20048;-67
2022/11/04 13:46:16;;;;;;;0.75;0.70;;;;;;;;;;10160384;28;20419;-68
2022/11/04 13:51:13;;;;;;;1.70;0.60;;;;;;;;;;10177797;28;20044;-68
2022/11/04 13:56:07;;;;;;;2.28;0.60;;;;;;;;;;10154410;28;20098;-67
2022/11/04 14:01:20;;;;;;;0.70;0.70;;;;;;;;;;10160362;28;20068;-67
2022/11/04 14:06:14;;;;;;;1.92;0.70;;;;;;;;;;10155317;28;20055;-67
2022/11/04 14:11:09;;;;;;;0.95;0.73;;;;;;;;;;10160836;28;20450;-68
2022/11/04 14:16:06;;;;;;;1.27;0.82;;;;;;;;;;10153844;28;20456;-67
2022/11/04 14:21:15;;;;;;;0.70;0.70;;;;;;;;;;10139956;28;20064;-68
2022/11/04 14:26:14;;;;;;;0.65;0.60;;;;;;;;;;10133092;28;20056;-68
2022/11/04 14:31:09;;;;;;;;;;;;;;;;;;10135003;28;20056;-68
2022/11/04 14:36:20;;;;;;;1.75;0.75;;;;;;;;;;10159094;28;19999;-68
2022/11/04 14:41:40;;;;;;;3.03;0.70;;;;;;;;;;10155117;28;20529;-68
2022/11/04 14:46:39;;;;;;;1.10;0.68;;;;;;;;;;10149589;28;20522;-68
2022/11/04 14:51:40;;;;;;;1.38;0.60;;;;;;;;;;10150483;28;20063;-66
2022/11/04 14:56:34;;;;;;;2.90;0.70;;;;;;;;;;10160585;28;20049;-67
2022/11/04 15:01:30;;;;;;;0.70;0.70;;;;;;;;;;10153584;28;20048;-68
2022/11/04 15:06:28;;;;;;;1.02;0.90;;;;;;;;;;10135827;28;20048;-67
2022/11/04 15:16:58;;;;;;;0.75;0.70;;;;;;;;;;10140309;28;20052;-68
2022/11/04 15:21:51;;;;;;;0.60;0.50;;;;;;;;;;10137765;28;20498;-69
2022/11/04 15:26:50;;;;;;;0.63;0.63;;;;;;;;;;10148826;28;20052;-69
2022/11/04 15:32:17;;;;;;;3.10;0.90;;;;;;;;;;10158995;28;20040;-68
2022/11/04 15:37:12;;;;;;;2.38;1.13;;;;;;;;;;10151704;28;20052;-69
2022/11/04 15:47:27;;;;;;;5.15;1.00;;;;;;;;;;10139856;28;20052;-68
2022/11/04 15:52:30;;;;;;;9.77;1.00;;;;;;;;;;10160814;28;20056;-68
2022/11/04 15:57:25;;;;;;;1.77;0.80;;;;;;;;;;10149079;28;20407;-69
2022/11/04 16:02:44;;;;;;;1.60;1.50;;;;;;;;;;10147777;28;20508;-69
2022/11/04 16:07:39;;;;;;;5.90;1.60;;;;;;;;;;10147200;28;20461;-68
2022/11/04 16:12:36;;;;;;;1.13;0.80;;;;;;;;;;10148547;28;20045;-68
2022/11/04 16:17:31;;;;;;;2.30;1.25;;;;;;;;;;10149409;28;20464;-65
2022/11/04 16:22:32;;;;;;;1.48;1.35;;;;;;;;;;10147272;28;20066;-66
2022/11/04 16:27:27;;;;;;;3.53;1.50;;;;;;;;;;10122913;28;20411;-66
2022/11/04 16:32:26;;;;;;;2.22;1.25;;;;;;;;;;10138109;28;20106;-66
2022/11/04 16:37:19;;;;;;;2.47;1.63;;;;;;;;;;10138197;28;20068;-66
2022/11/04 16:42:13;;;;;;;2.80;1.20;;;;;;;;;;10138816;28;20059;-66
2022/11/04 16:47:09;;;;;;;2.15;1.95;;;;;;;;;;10134446;28;20407;-66
2022/11/04 16:52:08;;;;;;;2.42;1.45;;;;;;;;;;10140204;28;20107;-66
2022/11/04 16:57:05;;;;;;;6.60;4.18;;;;;;;;;;10141107;28;20450;-66
2022/11/04 17:01:58;;;;;;;7.55;2.88;;;;;;;;;;10141055;28;20106;-65
2022/11/04 17:06:53;;;;;;;2.05;1.60;;;;;;;;;;10125872;28;20131;-66
2022/11/04 17:11:47;;;;;;;10.15;9.25;;;;;;;;;;10142345;28;20063;-66
2022/11/04 17:16:42;;;;;;;5.28;3.30;;;;;;;;;;10133843;28;20625;-66
2022/11/04 17:21:35;;;;;;;3.95;2.72;;;;;;;;;;10140649;28;20091;-66
2022/11/04 17:26:31;;;;;;;42.70;31.65;;;;;;;;;;10144564;28;20085;-66
2022/11/04 17:31:27;;;;;;;168.52;90.85;;;;;;;;;;10145324;28;20123;-65
2022/11/04 17:36:24;;;;;;;36.38;20.55;;;;;;;;;;10146121;28;20053;-65
2022/11/04 17:46:36;;;;;;;25.73;13.75;;;;;;;;;;10147019;28;20044;-66
2022/11/04 17:51:31;;;;;;;12.63;6.38;;;;;;;;;;10157009;28;20072;-66
2022/11/04 17:56:25;;;;;;;5.15;3.72;;;;;;;;;;10146943;28;21145;-66
2022/11/04 18:01:20;;;;;;;4.70;3.45;;;;;;;;;;10149873;28;20053;-66
2022/11/04 18:06:13;;;;;;;5.13;3.38;;;;;;;;;;10144992;28;20534;-65
2022/11/04 18:11:08;;;;;;;8.93;6.85;;;;;;;;;;10155166;28;20064;-66
2022/11/04 18:16:09;;;;;;;4.15;3.42;;;;;;;;;;10132449;28;20052;-66
2022/11/04 18:21:04;;;;;;;5.80;3.38;;;;;;;;;;10134359;28;20415;-65
2022/11/04 18:25:58;;;;;;;5.22;3.38;;;;;;;;;;10147808;28;20049;-66
2022/11/04 18:30:52;;;;;;;10.30;6.65;;;;;;;;;;10157803;28;20492;-66
2022/11/04 18:35:45;;;;;;;12.77;7.00;;;;;;;;;;10144991;28;20048;-67
2022/11/04 18:40:39;;;;;;;15.57;6.28;;;;;;;;;;10163100;28;20053;-66
2022/11/04 18:45:33;;;;;;;6.50;5.35;;;;;;;;;;10154124;28;20060;-65
2022/11/04 18:50:27;;;;;;;9.02;5.10;;;;;;;;;;10174218;28;20052;-68
2022/11/04 18:55:22;;;;;;;10.85;4.90;;;;;;;;;;10153163;28;20392;-67
2022/11/04 19:00:17;;;;;;;6.50;5.22;;;;;;;;;;10155441;28;20511;-66
2022/11/04 19:05:10;;;;;;;7.70;4.93;;;;;;;;;;10141180;28;20052;-65
2022/11/04 19:10:04;;;;;;;9.80;5.22;;;;;;;;;;10148013;28;20052;-68
2022/11/04 19:14:58;;;;;;;8.73;6.03;;;;;;;;;;10163434;28;20068;-68
2022/11/04 19:19:53;;;;;;;5.38;4.65;;;;;;;;;;10142211;28;20055;-66
2022/11/04 19:24:47;;;;;;;7.13;4.70;;;;;;;;;;10142838;28;20135;-68
2022/11/04 19:29:41;;;;;;;6.72;3.83;;;;;;;;;;10145304;28;20105;-66
2022/11/04 19:34:36;;;;;;;5.75;3.95;;;;;;;;;;10147486;28;20053;-67
2022/11/04 19:39:30;;;;;;;8.18;4.72;;;;;;;;;;10151373;28;20059;-66
2022/11/04 19:44:22;;;;;;;7.68;5.35;;;;;;;;;;10141722;28;20044;-67
2022/11/04 19:49:16;;;;;;;6.28;5.07;;;;;;;;;;10163698;28;20059;-66
2022/11/04 19:54:10;;;;;;;19.85;6.45;;;;;;;;;;10167310;28;20458;-66
2022/11/04 19:59:05;;;;;;;10.50;4.88;;;;;;;;;;10176093;28;20407;-66
2022/11/04 20:03:58;;;;;;;6.63;4.88;;;;;;;;;;10173173;28;20547;-67
2022/11/04 20:08:53;;;;;;;8.38;4.72;;;;;;;;;;10169485;28;20094;-67
2022/11/04 20:13:47;;;;;;;7.25;5.18;;;;;;;;;;10166214;28;20072;-67
2022/11/04 20:18:40;;;;;;;6.65;5.47;;;;;;;;;;10181675;28;20169;-67
2022/11/04 20:23:34;;;;;;;9.48;5.75;;;;;;;;;;10171168;28;20087;-67
2022/11/04 20:28:28;;;;;;;6.53;4.70;;;;;;;;;;10171689;28;20045;-67
2022/11/04 20:33:21;;;;;;;15.82;10.10;;;;;;;;;;10170886;28;20548;-67
2022/11/04 20:38:15;;;;;;;7.80;5.03;;;;;;;;;;10169672;28;20440;-66
2022/11/04 20:43:08;;;;;;;9.40;4.90;;;;;;;;;;10169853;28;20478;-67
2022/11/04 20:48:03;;;;;;;9.93;8.82;;;;;;;;;;10164077;28;20510;-68
2022/11/04 20:52:56;;;;;;;25.35;15.50;;;;;;;;;;10146732;28;20059;-67
2022/11/04 20:57:50;;;;;;;7.32;6.50;;;;;;;;;;10148378;28;20499;-68
2022/11/04 21:02:45;;;;;;;75.72;41.70;;;;;;;;;;10137685;28;20135;-68
2022/11/04 21:07:39;;;;;;;38.15;23.58;;;;;;;;;;10158230;28;20048;-68
2022/11/04 21:12:32;;;;;;;35.13;19.25;;;;;;;;;;10164141;28;20072;-68
2022/11/04 21:17:26;;;;;;;24.63;16.95;;;;;;;;;;10166269;28;20055;-68
2022/11/04 21:22:21;;;;;;;20.35;13.65;;;;;;;;;;10163726;28;20059;-71
2022/11/04 21:27:15;;;;;;;17.35;11.95;;;;;;;;;;10167002;28;20044;-70
2022/11/04 21:32:09;;;;;;;13.38;10.15;;;;;;;;;;10161873;28;20541;-71
2022/11/04 21:37:04;;;;;;;18.58;10.35;;;;;;;;;;10162011;28;20045;-71
2022/11/04 21:41:58;;;;;;;11.45;6.53;;;;;;;;;;10150021;28;20143;-68
2022/11/04 21:46:52;;;;;;;18.42;13.57;;;;;;;;;;10165034;28;20052;-69
2022/11/04 21:51:46;;;;;;;20.27;10.15;;;;;;;;;;10157247;28;20506;-69
2022/11/04 21:56:41;;;;;;;10.35;8.23;;;;;;;;;;10146786;28;20048;-69
2022/11/04 22:01:35;;;;;;;9.25;6.13;;;;;;;;;;10153693;28;20487;-68
2022/11/04 22:07:08;;;;;;;12.77;6.82;;;;;;;;;;10152934;28;20607;-68
2022/11/04 22:12:22;;;;;;;7.68;6.85;;;;;;;;;;10158578;28;20052;-68
2022/11/04 22:17:16;;;;;;;11.10;9.27;;;;;;;;;;10162439;28;20058;-69
2022/11/04 22:22:09;;;;;;;6.10;5.00;;;;;;;;;;10152518;28;20553;-69
2022/11/04 22:27:03;;;;;;;8.52;7.00;;;;;;;;;;10152683;28;20066;-69
2022/11/04 22:31:57;;;;;;;8.68;7.10;;;;;;;;;;10152328;28;20102;-69
2022/11/04 22:36:50;;;;;;;7.63;4.75;;;;;;;;;;10153053;28;20052;-68
2022/11/04 22:41:45;;;;;;;8.57;5.95;;;;;;;;;;10152493;28;20037;-68
2022/11/04 22:46:38;;;;;;;7.57;5.20;;;;;;;;;;10152486;28;20054;-69
2022/11/04 22:51:32;;;;;;;8.52;6.40;;;;;;;;;;10152193;28;20048;-68
2022/11/04 22:56:26;;;;;;;6.78;5.65;;;;;;;;;;10152039;28;20128;-69
2022/11/04 23:01:20;;;;;;;13.30;10.82;;;;;;;;;;10151377;28;20059;-68
2022/11/04 23:06:14;;;;;;;6.80;5.00;;;;;;;;;;10150758;28;20450;-69
2022/11/04 23:26:52;;;;;;;5.60;5.07;;;;;;;;;;10150106;28;20063;-68
2022/11/04 23:31:48;;;;;;;6.97;4.60;;;;;;;;;;10161713;28;20488;-69
2022/11/04 23:37:16;;;;;;;5.28;4.55;;;;;;;;;;10150292;28;20056;-68
2022/11/04 23:42:16;;;;;;;5.53;4.63;;;;;;;;;;10138523;28;20052;-68
